Terminal Aerodrome Forecast
Issued by NWS Goodland, KS

Home | Current Version | Previous Version | Text Only | Print | Product List | Glossary On
Versions: 1 2 3 4 5 6 7 8 9 10 11 12 13 14 15 16 17 18
663
FTUS43 KGLD 291138
TAFGLD
TAF
KGLD 291138Z 2912/3012 01016G24KT 5SM -RA BR OVC004
     FM291700 36023G31KT 3SM -SHRA OVC008
     FM292000 36022G30KT P6SM VCSH OVC015
     FM300100 35013KT P6SM BKN035
     FM300600 34009KT P6SM SCT030=

USA.gov is the U.S. government's official web portal to all federal, state and local government web resources and services.